createdAt,value
2023-04-23T11:59:09.704Z,98968.03
2023-04-23T12:01:14.437Z,98972.31
2023-04-23T12:03:19.455Z,98965.13
2023-04-23T12:05:30.278Z,98975.22
2023-04-23T12:07:36.708Z,98979.44
2023-04-23T12:09:42.579Z,98974.38
2023-04-23T12:11:47.964Z,98970.66
2023-04-23T12:13:54.719Z,98970.34
2023-04-23T12:16:06.794Z,98972.41
2023-04-23T12:18:12.980Z,98970.28
2023-04-23T12:20:23.111Z,98959.81
2023-04-23T12:22:31.413Z,98971.28
2023-04-23T12:24:53.530Z,98963.19
2023-04-23T12:27:01.218Z,98973.38
2023-04-23T12:29:09.053Z,98957.69
2023-04-23T12:31:22.726Z,98953.03
2023-04-23T12:33:31.776Z,98955.94
2023-04-23T12:35:45.492Z,98968.94
2023-04-23T12:37:50.459Z,98952.41
2023-04-23T12:39:57.469Z,98957.69
2023-04-23T12:42:07.528Z,98965.84
2023-04-23T12:44:13.284Z,98961.41
2023-04-23T12:46:19.429Z,98957.00
2023-04-23T12:48:25.444Z,98960.09
2023-04-23T12:50:30.760Z,98953.38
2023-04-23T12:52:37.211Z,98946.72
2023-04-23T12:54:42.726Z,98945.38
2023-04-23T12:56:48.821Z,98944.19
2023-04-23T12:58:54.556Z,98939.22
2023-04-23T13:00:59.617Z,98945.06
2023-04-23T13:03:04.738Z,98952.94
2023-04-23T13:05:10.586Z,98949.28
2023-04-23T13:07:16.430Z,98947.97
2023-04-23T13:09:22.669Z,98938.25
2023-04-23T13:11:28.079Z,98942.03
2023-04-23T13:13:32.973Z,98939.28
2023-04-23T13:15:38.995Z,98940.06
2023-04-23T13:17:43.955Z,98936.38
2023-04-23T13:19:49.011Z,98936.06
2023-04-23T13:21:54.414Z,98936.91
2023-04-23T13:23:59.248Z,98938.28
2023-04-23T13:26:07.320Z,98928.66
2023-04-23T13:28:11.756Z,98935.59
2023-04-23T13:30:16.397Z,98941.28
2023-04-23T13:32:22.555Z,98936.06
2023-04-23T13:34:27.066Z,98942.41
2023-04-23T13:36:31.889Z,98933.91
2023-04-23T13:38:37.112Z,98929.09
2023-04-23T13:40:42.071Z,98922.69
2023-04-23T13:42:48.669Z,98924.47
2023-04-23T13:44:53.476Z,98932.03
2023-04-23T13:46:59.349Z,98926.97
2023-04-23T13:49:04.452Z,98928.50
2023-04-23T13:51:17.932Z,98921.66
2023-04-23T13:53:31.024Z,98919.66
2023-04-23T13:55:36.112Z,98923.03
2023-04-23T13:57:41.076Z,98910.75
2023-04-23T13:59:45.778Z,98916.69
2023-04-23T14:01:50.486Z,98904.41
2023-04-23T14:03:55.158Z,98898.31
2023-04-23T14:05:59.953Z,98905.28
2023-04-23T14:08:04.889Z,98906.81
2023-04-23T14:10:09.957Z,98905.59
2023-04-23T14:12:14.919Z,98911.38
2023-04-23T14:14:20.224Z,98902.56
2023-04-23T14:16:26.174Z,98908.09
2023-04-23T14:18:31.010Z,98907.16
2023-04-23T14:20:36.186Z,98899.75
2023-04-23T14:22:42.951Z,98915.56
2023-04-23T14:24:51.688Z,98899.09
2023-04-23T14:26:56.698Z,98899.66
2023-04-23T14:29:19.608Z,98901.84
2023-04-23T14:31:24.702Z,98904.72
2023-04-23T14:33:29.161Z,98893.31
2023-04-23T14:35:43.146Z,98895.91
2023-04-23T14:37:48.204Z,98893.16
2023-04-23T14:39:53.524Z,98900.31
2023-04-23T14:41:58.006Z,98887.69
2023-04-23T14:44:02.960Z,98891.34
2023-04-23T14:46:08.576Z,98885.06
2023-04-23T14:48:13.938Z,98887.13
2023-04-23T14:50:19.629Z,98865.84
2023-04-23T14:52:25.828Z,98874.72
2023-04-23T14:54:30.503Z,98890.63
2023-04-23T14:56:36.054Z,98885.09
2023-04-23T14:58:42.582Z,98871.69
2023-04-23T15:00:48.137Z,98890.75
2023-04-23T15:02:53.742Z,98881.66
2023-04-23T15:04:58.928Z,98874.75
2023-04-23T15:07:04.281Z,98872.69
2023-04-23T15:09:09.931Z,98866.25
2023-04-23T15:11:15.002Z,98889.25
2023-04-23T15:13:40.259Z,98884.31
2023-04-23T15:15:49.030Z,98867.34
2023-04-23T15:17:54.188Z,98876.97
2023-04-23T15:20:00.942Z,98868.28
2023-04-23T15:22:06.147Z,98874.13
2023-04-23T15:24:11.275Z,98874.00
2023-04-23T15:26:16.663Z,98881.69
2023-04-23T15:28:21.594Z,98880.53
2023-04-23T15:30:29.958Z,98863.53
2023-04-23T15:32:35.140Z,98868.91
2023-04-23T15:34:40.065Z,98855.94
2023-04-23T15:36:46.096Z,98861.13
2023-04-23T15:38:51.239Z,98866.50
2023-04-23T15:40:58.164Z,98862.47
2023-04-23T15:43:04.075Z,98862.13
2023-04-23T15:45:11.559Z,98863.59
2023-04-23T15:47:17.185Z,98859.50
2023-04-23T15:49:22.353Z,98868.47
2023-04-23T15:51:27.905Z,98870.88
2023-04-23T15:53:33.632Z,98855.94
2023-04-23T15:55:42.550Z,98860.41
2023-04-23T15:57:48.436Z,98858.56
2023-04-23T15:59:56.537Z,98843.38
2023-04-23T16:02:02.468Z,98853.34
2023-04-23T16:04:11.511Z,98843.69
2023-04-23T16:06:18.717Z,98841.22
2023-04-23T16:08:24.091Z,98853.19
2023-04-23T16:10:32.283Z,98846.31
2023-04-23T16:12:39.156Z,98846.91
2023-04-23T16:14:45.561Z,98846.72
2023-04-23T16:16:51.553Z,98845.09
2023-04-23T16:18:57.885Z,98844.50
2023-04-23T16:21:03.082Z,98850.16
2023-04-23T16:23:10.877Z,98825.19
2023-04-23T16:25:16.653Z,98847.88
2023-04-23T16:27:22.600Z,98833.69
2023-04-23T16:29:28.305Z,98847.50
2023-04-23T16:31:40.482Z,98851.44
2023-04-23T16:33:46.772Z,98851.97
2023-04-23T16:35:53.506Z,98851.91
2023-04-23T16:37:59.388Z,98856.75
2023-04-23T16:40:05.339Z,98843.34
2023-04-23T16:42:10.986Z,98858.78
2023-04-23T16:44:16.758Z,98846.94
2023-04-23T16:46:23.402Z,98849.00
2023-04-23T16:48:29.294Z,98862.44
2023-04-23T16:50:34.949Z,98860.06
2023-04-23T16:52:40.961Z,98856.84
2023-04-23T16:54:47.082Z,98862.09
2023-04-23T16:56:52.860Z,98839.09
2023-04-23T16:58:59.135Z,98849.22
2023-04-23T17:01:05.175Z,98854.09
2023-04-23T17:03:11.268Z,98859.53
2023-04-23T17:05:17.319Z,98855.91
2023-04-23T17:07:23.642Z,98859.34
2023-04-23T17:09:30.387Z,98842.56
2023-04-23T17:11:36.953Z,98852.03
2023-04-23T17:13:44.718Z,98851.41
2023-04-23T17:15:51.351Z,98855.22
2023-04-23T17:17:57.991Z,98851.59
2023-04-23T17:20:04.887Z,98849.56
2023-04-23T17:22:11.766Z,98852.56
2023-04-23T17:24:18.291Z,98851.34
2023-04-23T17:26:24.702Z,98855.00
2023-04-23T17:28:30.435Z,98860.78
2023-04-23T17:30:37.015Z,98854.53
2023-04-23T17:32:43.404Z,98850.69
2023-04-23T17:34:56.442Z,98850.69
2023-04-23T17:37:09.230Z,98845.81
2023-04-23T17:39:20.667Z,98838.50
2023-04-23T17:41:27.455Z,98842.72
2023-04-23T17:43:35.699Z,98856.31
2023-04-23T17:45:42.322Z,98839.16
2023-04-23T17:47:48.509Z,98846.00
2023-04-23T17:49:54.711Z,98841.72
2023-04-23T17:52:00.740Z,98843.94
2023-04-23T17:54:07.605Z,98855.00
2023-04-23T17:56:14.239Z,98851.09
2023-04-23T17:58:21.170Z,98854.50
2023-04-23T18:00:29.494Z,98850.22
2023-04-23T18:02:40.927Z,98858.28
2023-04-23T18:04:47.168Z,98851.38
2023-04-23T18:06:53.414Z,98855.38
2023-04-23T18:08:59.599Z,98861.38
2023-04-23T18:11:07.872Z,98850.78
2023-04-23T18:13:14.631Z,98861.44
2023-04-23T18:15:20.147Z,98874.94
2023-04-23T18:17:27.209Z,98862.19
2023-04-23T18:19:33.328Z,98846.41
2023-04-23T18:21:39.939Z,98855.63
2023-04-23T18:23:47.299Z,98857.41
2023-04-23T18:25:52.923Z,98870.06
2023-04-23T18:27:59.288Z,98865.44
2023-04-23T18:30:06.642Z,98857.44
2023-04-23T18:32:15.835Z,98855.31
2023-04-23T18:34:26.942Z,98858.59
2023-04-23T18:36:39.373Z,98867.97
2023-04-23T18:38:49.235Z,98867.88
2023-04-23T18:40:55.541Z,98871.41
2023-04-23T18:43:01.481Z,98874.19
2023-04-23T18:45:07.373Z,98874.28
2023-04-23T18:47:13.250Z,98877.03
2023-04-23T18:49:54.301Z,98883.19
2023-04-23T18:52:00.301Z,98875.50
2023-04-23T18:54:06.989Z,98881.53
2023-04-23T18:56:13.399Z,98876.50
2023-04-23T18:58:19.476Z,98874.72
2023-04-23T19:00:25.260Z,98878.47
2023-04-23T19:02:35.729Z,98863.56
2023-04-23T19:04:41.785Z,98880.66
2023-04-23T19:06:48.370Z,98870.13
2023-04-23T19:08:54.434Z,98863.34
2023-04-23T19:11:00.392Z,98875.56
2023-04-23T19:13:06.320Z,98883.59
2023-04-23T19:15:12.174Z,98880.47
2023-04-23T19:17:18.974Z,98873.84
2023-04-23T19:19:25.749Z,98865.97
2023-04-23T19:21:33.182Z,98887.31
2023-04-23T19:23:39.313Z,98868.00
2023-04-23T19:25:45.791Z,98861.81
2023-04-23T19:27:52.305Z,98877.97
2023-04-23T19:29:58.791Z,98860.59
2023-04-23T19:32:05.395Z,98867.09
2023-04-23T19:34:11.468Z,98868.41
2023-04-23T19:36:17.607Z,98866.13
2023-04-23T19:38:23.593Z,98878.19
2023-04-23T19:40:29.138Z,98884.22
2023-04-23T19:42:34.955Z,98884.25
2023-04-23T19:44:40.552Z,98853.72
2023-04-23T19:46:46.997Z,98857.97
2023-04-23T19:48:52.789Z,98883.78
2023-04-23T19:50:58.412Z,98883.25
2023-04-23T19:53:05.291Z,98855.00
2023-04-23T19:55:11.068Z,98849.47
2023-04-23T19:57:17.564Z,98845.56
2023-04-23T19:59:23.418Z,98853.03
2023-04-23T20:01:30.642Z,98862.28
2023-04-23T20:03:36.545Z,98873.03
2023-04-23T20:05:44.750Z,98851.94
2023-04-23T20:07:50.367Z,98844.91
2023-04-23T20:09:56.112Z,98839.41
2023-04-23T20:12:02.956Z,98845.91
2023-04-23T20:14:09.077Z,98838.94
2023-04-23T20:16:14.855Z,98843.97
2023-04-23T20:18:22.787Z,98857.28
2023-04-23T20:20:29.045Z,98848.19
2023-04-23T20:22:38.134Z,98847.72
2023-04-23T20:24:47.288Z,98841.56
2023-04-23T20:26:53.011Z,98854.72
2023-04-23T20:28:59.114Z,98846.59
2023-04-23T20:31:05.304Z,98839.13
2023-04-23T20:33:11.154Z,98839.44
2023-04-23T20:35:17.249Z,98842.88
2023-04-23T20:37:22.341Z,98840.91
2023-04-23T20:39:28.133Z,98839.78
2023-04-23T20:41:37.240Z,98836.06
2023-04-23T20:43:45.048Z,98839.94
2023-04-23T20:45:50.310Z,98832.97
2023-04-23T20:47:58.147Z,98833.75
2023-04-23T20:50:03.657Z,98830.81
2023-04-23T20:52:09.186Z,98831.44
2023-04-23T20:54:14.807Z,98835.34
2023-04-23T20:56:20.079Z,98818.13
2023-04-23T20:58:25.451Z,98833.03
2023-04-23T21:00:30.621Z,98828.78
2023-04-23T21:02:38.520Z,98821.50
2023-04-23T21:04:43.869Z,98829.53
2023-04-23T21:06:50.100Z,98831.16
2023-04-23T21:08:56.551Z,98822.53
2023-04-23T21:11:02.043Z,98818.28
2023-04-23T21:13:11.288Z,98823.41
2023-04-23T21:15:17.972Z,98820.91
2023-04-23T21:17:21.836Z,98834.94
2023-04-23T21:19:26.746Z,98818.03
2023-04-23T21:21:32.920Z,98811.28
2023-04-23T21:23:38.728Z,98817.38
2023-04-23T21:25:43.820Z,98814.50
2023-04-23T21:27:49.475Z,98813.06
2023-04-23T21:29:54.505Z,98802.34
2023-04-23T21:32:00.816Z,98801.34
2023-04-23T21:34:06.190Z,98797.94
2023-04-23T21:36:12.146Z,98795.19
2023-04-23T21:38:18.978Z,98791.19
2023-04-23T21:40:27.333Z,98792.66
2023-04-23T21:42:33.457Z,98791.09
2023-04-23T21:44:39.709Z,98796.31
2023-04-23T21:46:45.574Z,98785.41
2023-04-23T21:48:54.418Z,98780.84
2023-04-23T21:51:00.144Z,98787.88
2023-04-23T21:53:08.180Z,98780.84
2023-04-23T21:55:15.148Z,98781.19
2023-04-23T21:57:19.989Z,98796.56
2023-04-23T21:59:25.270Z,98790.72
2023-04-23T22:01:30.275Z,98771.59
2023-04-23T22:03:38.739Z,98796.41
2023-04-23T22:05:43.829Z,98782.00
2023-04-23T22:07:55.475Z,98782.31
2023-04-23T22:10:01.396Z,98773.44
2023-04-23T22:12:07.816Z,98783.66
2023-04-23T22:14:13.615Z,98779.75
2023-04-23T22:16:28.307Z,98782.53
2023-04-23T22:18:36.218Z,98766.13
2023-04-23T22:20:44.950Z,98789.97
2023-04-23T22:22:51.542Z,98782.56
2023-04-23T22:24:57.599Z,98764.03
2023-04-23T22:27:04.340Z,98773.47
2023-04-23T22:29:10.240Z,98769.09
2023-04-23T22:31:16.150Z,98766.38
2023-04-23T22:33:22.013Z,98771.34
2023-04-23T22:35:27.356Z,98765.19
2023-04-23T22:37:35.623Z,98762.44
2023-04-23T22:39:41.725Z,98760.34
2023-04-23T22:41:48.152Z,98760.16
2023-04-23T22:43:55.325Z,98776.84
2023-04-23T22:46:01.746Z,98756.09
2023-04-23T22:48:08.536Z,98756.38
2023-04-23T22:50:14.753Z,98753.50
2023-04-23T22:52:21.260Z,98752.22
2023-04-23T22:54:26.761Z,98755.94
2023-04-23T22:56:32.763Z,98750.09
2023-04-23T22:58:38.421Z,98747.03
2023-04-23T23:00:44.696Z,98741.03
2023-04-23T23:02:51.731Z,98738.09
2023-04-23T23:04:57.026Z,98748.84
2023-04-23T23:07:03.237Z,98742.19
2023-04-23T23:09:08.884Z,98734.41
2023-04-23T23:11:15.252Z,98738.31
2023-04-23T23:13:21.405Z,98738.94
2023-04-23T23:15:27.740Z,98724.34
2023-04-23T23:17:34.718Z,98735.69
2023-04-23T23:19:43.747Z,98730.69
2023-04-23T23:21:50.450Z,98726.78
2023-04-23T23:23:57.858Z,98723.06
2023-04-23T23:26:05.163Z,98719.66
2023-04-23T23:28:15.846Z,98724.03
2023-04-23T23:30:22.846Z,98709.78
2023-04-23T23:32:27.981Z,98712.69
2023-04-23T23:34:33.684Z,98725.00
2023-04-23T23:36:39.676Z,98712.88
2023-04-23T23:38:45.771Z,98715.00
2023-04-23T23:40:51.401Z,98714.34
2023-04-23T23:42:55.847Z,98713.53
2023-04-23T23:45:01.682Z,98712.41
2023-04-23T23:47:07.454Z,98703.63
2023-04-23T23:49:13.958Z,98705.28
2023-04-23T23:51:19.830Z,98707.22
2023-04-23T23:53:26.456Z,98702.34
2023-04-23T23:55:31.906Z,98701.06
2023-04-23T23:57:37.340Z,98692.44
2023-04-23T23:59:43.364Z,98694.91
